Flight Track Log - Related Links

Times and Time Zones

All times are in EDT time to prevent confusion due to time zone crossing. See the N53NW flight status page for this flight to view local times or setup timezone preferences in your user account.

Time Position Orientation Groundspeed Altitude Reporting Facility
EDT Latitude Longitude Course Direction KTS MPH feet Rate Location/Type
Sun 05:25:40 PM 31.3022 -81.4336 10° North 306 352 4,700  Level Jacksonville Center
Sun 05:26:40 PM 31.3792 -81.4131 13° North 269 310 7,200 2,500 Climbing Jacksonville Center
Sun 05:27:40 PM 31.4561 -81.3925 13° North 275 316 9,700 2,500 Climbing Jacksonville Center
Sun 05:28:40 PM 31.5311 -81.3692 15° North 281 323 12,200 2,200 Climbing Jacksonville Center
Sun 05:29:00 PM 31.6435 -81.2813 10° North  Level FlightAware Approximate
Sun 05:29:40 PM 31.6058 -81.3483 13° North 286 329 14,100  Level Jacksonville Center
Sun 05:30:00 PM 31.7424 -81.2615 10° North  Level FlightAware Approximate
Sun 05:30:40 PM 31.6956 -81.3250 12° North 298 343 16,300  Level Jacksonville Center
Sun 05:31:40 PM 31.7808 -81.3017 13° North 298 343 17,900 1,500 Climbing Jacksonville Center
Sun 05:32:40 PM 31.8578 -81.2806 13° North 303 349 19,300 1,450 Climbing Jacksonville Center
Sun 05:33:40 PM 31.9575 -81.2544 13° North 326 375 20,800 1,500 Climbing Jacksonville Center
Sun 05:34:40 PM 32.0492 -81.2283 14° North 333 383 22,300 1,500 Climbing Jacksonville Center
Sun 05:35:40 PM 32.1406 -81.1972 16° North 333 383 23,800 1,550 Climbing Jacksonville Center
Sun 05:36:40 PM 32.2019 -81.1150 49° Northeast 324 373 25,400 1,500 Climbing Jacksonville Center
Sun 05:37:40 PM 32.2553 -81.0378 51° Northeast 330 380 26,800 1,550 Climbing Jacksonville Center
Sun 05:38:40 PM 32.3269 -80.9478 47° Northeast 336 387 28,500 1,550 Climbing Jacksonville Center
Sun 05:39:40 PM 32.3864 -80.8753 46° Northeast 336 387 29,900 1,450 Climbing Jacksonville Center
Sun 05:40:40 PM 32.4600 -80.7850 46° Northeast 336 387 31,400 1,500 Climbing Jacksonville Center
Sun 05:41:40 PM 32.5297 -80.7069 43° Northeast 341 392 32,900 1,250 Climbing Jacksonville Center
Sun 05:42:40 PM 32.5953 -80.6289 45° Northeast 341 392 33,900 1,050 Climbing Jacksonville Center
Sun 05:43:40 PM 32.6625 -80.5483 45° Northeast 336 387 35,000 550 Climbing Jacksonville Center
Sun 05:44:40 PM 32.7319 -80.4675 44° Northeast 336 387 35,000  Level Jacksonville Center
Sun 05:45:40 PM 32.8056 -80.3817 44° Northeast 348 400 35,000 150 Level Jacksonville Center
Sun 05:46:40 PM 32.8808 -80.2903 46° Northeast 360 414 35,300 700 Climbing Jacksonville Center
Sun 05:47:40 PM 32.9625 -80.2014 42° Northeast 378 435 36,400 1,050 Climbing Jacksonville Center
Sun 05:48:40 PM 33.0336 -80.1175 45° Northeast 374 430 37,400 900 Climbing Jacksonville Center
Sun 05:49:40 PM 33.0986 -80.0311 48° Northeast 372 428 38,200 800 Climbing Jacksonville Center
Sun 05:50:40 PM 33.1678 -79.9544 43° Northeast 357 411 39,000 400 Climbing Jacksonville Center
Sun 05:51:40 PM 33.2408 -79.8703 44° Northeast 352 405 39,000  Level Jacksonville Center
Sun 05:52:40 PM 33.3158 -79.7781 46° Northeast 358 412 39,000  Level Jacksonville Center
Sun 05:53:40 PM 33.3928 -79.6858 45° Northeast 378 435 39,000  Level Jacksonville Center
Sun 05:54:40 PM 33.4739 -79.5908 44° Northeast 391 450 39,000  Level Jacksonville Center
Sun 05:55:40 PM 33.5508 -79.4958 46° Northeast 396 456 39,000  Level Jacksonville Center
Sun 05:56:40 PM 33.6294 -79.4006 45° Northeast 396 456 39,000  Level Jacksonville Center
Sun 05:57:40 PM 33.7083 -79.3050 45° Northeast 396 456 39,000  Level Jacksonville Center
Sun 05:58:40 PM 33.7889 -79.2117 44° Northeast 389 448 39,000  Level Jacksonville Center
Sun 05:59:40 PM 33.8694 -79.1133 45° Northeast 389 448 39,000  Level Jacksonville Center
Sun 06:01:38 PM 34.0122 -78.9464 44° Northeast 400 460 39,000  Level Washington Center
Sun 06:02:38 PM 34.1000 -78.8622 38° Northeast 390 449 39,000  Level Washington Center
Sun 06:03:36 PM 34.1839 -78.7725 41° Northeast 390 449 39,000  Level Washington Center
Sun 06:04:37 PM 34.2717 -78.6881 38° Northeast 395 455 39,000  Level Washington Center
Sun 06:05:38 PM 34.3572 -78.6031 39° Northeast 395 455 39,000  Level Washington Center
Sun 06:06:37 PM 34.4428 -78.5158 40° Northeast 395 455 39,000  Level Washington Center
Sun 06:07:37 PM 34.5325 -78.4281 39° Northeast 400 460 39,000  Level Washington Center
Sun 06:08:38 PM 34.6161 -78.3403 41° Northeast 400 460 39,000  Level Washington Center
Sun 06:09:38 PM 34.7056 -78.2547 38° Northeast 400 460 39,000  Level Washington Center
Sun 06:10:37 PM 34.7889 -78.1639 42° Northeast 405 466 39,000  Level Washington Center
Sun 06:11:38 PM 34.8722 -78.0706 43° Northeast 400 460 39,000  Level Washington Center
Sun 06:12:38 PM 34.9575 -77.9844 40° Northeast 395 455 39,000 305 Level Washington Center
Sun 06:13:36 PM 35.0508 -77.9033 35° Northeast 395 455 39,600 504 Climbing Washington Center
Sun 06:14:37 PM 35.1419 -77.8322 33° Northeast 395 455 40,000 295 Climbing Washington Center
Sun 06:15:38 PM 35.2350 -77.7586 33° Northeast 395 455 40,200 496 Climbing Washington Center
Sun 06:16:38 PM 35.3303 -77.6847 32° Northeast 395 455 41,000 407 Climbing Washington Center
Sun 06:17:36 PM 35.4233 -77.6158 31° Northeast 395 455 41,000  Level Washington Center
Sun 06:18:37 PM 35.5183 -77.5392 33° Northeast 395 455 41,000  Level Washington Center
Sun 06:19:38 PM 35.6114 -77.4647 33° Northeast 395 455 41,000  Level Washington Center
Sun 06:20:36 PM 35.7044 -77.3928 32° Northeast 395 455 41,000  Level Washington Center
Sun 06:21:36 PM 35.8014 -77.3156 33° Northeast 400 460 41,000  Level Washington Center
Sun 06:22:36 PM 35.8942 -77.2458 31° Northeast 394 453 41,000  Level Washington Center
Sun 06:23:38 PM 35.9892 -77.1708 33° Northeast 394 453 41,000  Level Washington Center
Sun 06:24:36 PM 36.0736 -77.0953 36° Northeast 387 445 41,000  Level Washington Center
Sun 06:25:38 PM 36.1683 -77.0225 32° Northeast 387 445 41,000  Level Washington Center
Sun 06:26:38 PM 36.2611 -76.9494 32° Northeast 393 452 41,000  Level Washington Center
Sun 06:27:36 PM 36.3558 -76.8764 32° Northeast 393 452 41,000  Level Washington Center
Sun 06:28:37 PM 36.4483 -76.8003 33° Northeast 393 452 41,000  Level Washington Center
Sun 06:29:38 PM 36.5239 -76.7394 33° Northeast 393 452 41,000  Level Washington Center
Sun 06:30:38 PM 36.6353 -76.6506 33° Northeast 393 452 41,000  Level Washington Center
Sun 06:31:36 PM 36.7342 -76.5639 35° Northeast 393 452 41,000  Level Washington Center
Sun 06:32:36 PM 36.8267 -76.4872 34° Northeast 398 458 41,000  Level Washington Center
Sun 06:33:36 PM 36.9189 -76.4103 34° Northeast 398 458 41,000  Level Washington Center
Sun 06:34:37 PM 37.0111 -76.3358 33° Northeast 398 458 41,000  Level Washington Center
Sun 06:35:38 PM 37.1056 -76.2586 33° Northeast 398 458 41,000  Level Washington Center
Sun 06:36:36 PM 37.1978 -76.1811 34° Northeast 393 452 41,000  Level Washington Center
Sun 06:37:37 PM 37.3003 -76.1089 29° Northeast 399 459 41,000  Level Washington Center
Sun 06:38:38 PM 37.3922 -76.0311 34° Northeast 404 465 41,000  Level Washington Center
Sun 06:39:38 PM 37.4886 -75.9503 34° Northeast 404 465 41,000  Level Washington Center
Sun 06:40:36 PM 37.5806 -75.8747 33° Northeast 404 465 41,000  Level Washington Center
Sun 06:41:36 PM 37.6744 -75.7911 35° Northeast 404 465 41,000  Level Washington Center
Sun 06:42:37 PM 37.7706 -75.7128 33° Northeast 404 465 41,000  Level Washington Center
Sun 06:43:38 PM 37.8644 -75.6311 34° Northeast 404 465 41,000  Level Washington Center
Sun 06:44:38 PM 37.9583 -75.5522 34° Northeast 404 465 41,000  Level Washington Center
Sun 06:45:36 PM 38.0542 -75.4731 33° Northeast 404 465 41,000  Level Washington Center
Sun 06:46:37 PM 38.1542 -75.4094 27° Northeast 404 465 41,000  Level Washington Center
Sun 06:47:38 PM 38.2542 -75.3431 28° Northeast 404 465 41,000 -353 Level Washington Center
Sun 06:48:36 PM 38.3500 -75.2767 29° Northeast 394 453 40,300 -958 Descending Washington Center
Sun 06:49:37 PM 38.4497 -75.2153 26° Northeast 389 448 39,100 -1,180 Descending Washington Center
Sun 06:50:38 PM 38.5517 -75.1511 26° Northeast 389 448 37,900 -1,041 Descending Washington Center
Sun 06:51:38 PM 38.6536 -75.0867 26° Northeast 395 455 37,000 -458 Descending Washington Center
Sun 06:52:36 PM 38.7556 -75.0167 28° Northeast 400 460 37,000 -202 Level Washington Center
Sun 06:53:37 PM 38.8594 -74.9544 25° Northeast 405 466 36,600 -1,033 Descending Washington Center
Sun 06:54:38 PM 38.9633 -74.8869 27° Northeast 405 466 34,900 -1,664 Descending Washington Center
Sun 06:55:36 PM 39.0692 -74.8189 27° Northeast 405 466 33,300 -1,613 Descending Washington Center
Sun 06:56:37 PM 39.1622 -74.7322 36° Northeast 405 466 31,700 -1,579 Descending Washington Center
Sun 06:58:27 PM 39.3250 -74.5658 38° Northeast 408 470 28,800 -1,579 Descending New York Center
Sun 06:59:28 PM 39.4200 -74.4661 39° Northeast 421 484 27,200 -1,672 Descending New York Center
Sun 07:00:29 PM 39.5214 -74.3556 40° Northeast 426 490 25,400 -1,587 Descending New York Center
Sun 07:01:29 PM 39.6031 -74.2681 40° Northeast 426 490 24,000 -1,250 Descending New York Center
Sun 07:02:29 PM 39.6933 -74.1756 38° Northeast 421 484 22,900 -1,322 Descending New York Center
Sun 07:03:27 PM 39.7794 -74.0825 40° Northeast 410 472 21,400 -966 Descending New York Center
Sun 07:04:27 PM 39.8717 -73.9950 36° Northeast 405 466 21,000 -198 Descending New York Center
Sun 07:05:28 PM 39.9614 -73.9125 35° Northeast 400 460 21,000  Level New York Center
Sun 07:06:28 PM 40.0528 -73.8406 31° Northeast 395 455 21,000  Level New York Center
Sun 07:07:27 PM 40.1328 -73.8903 335° Northwest 321 369 21,000  Level New York Center
Sun 07:08:27 PM 40.0869 -73.9722 234° Southwest 150 173 21,000  Level New York Center
Sun 07:09:27 PM 40.0064 -74.0147 202° Southwest 196 226 21,000 -347 Level New York Center
Sun 07:10:28 PM 39.9275 -74.0083 176° South 243 280 20,300 -992 Descending New York Center
Sun 07:11:28 PM 39.9375 -73.8681 85° East 216 249 19,000 -1,140 Descending New York Center
Sun 07:12:29 PM 40.0128 -73.7847 40° Northeast 230 265 18,000 -908 Descending New York Center
Sun 07:13:27 PM 40.0894 -73.7147 35° Northeast 325 374 17,200 -500 Descending New York Center
Sun 07:14:29 PM 40.1811 -73.6289 36° Northeast 368 423 17,000 -106 Descending New York Center
Sun 07:16:17 PM 40.3114 -73.5122 34° Northeast 372 428 16,900 -36 Descending Boston Center
Sun 07:17:17 PM 40.4183 -73.4406 27° Northeast 367 422 16,900  Level Boston Center
Sun 07:18:17 PM 40.5144 -73.4064 15° North 356 410 16,900  Level Boston Center
Sun 07:19:18 PM 40.6128 -73.3694 16° North 356 410 16,900 -776 Level Boston Center
Sun 07:20:44 PM 40.7500 -73.3167 16° North 335 386 15,000 -781 Descending New York TRACON
Sun 07:21:44 PM 40.8167 -73.2500 37° Northeast 333 383 15,000 -950 Level New York TRACON
Sun 07:22:44 PM 40.8667 -73.1333 60° Northeast 372 428 13,100 -1,950 Descending New York TRACON
Sun 07:23:44 PM 40.9167 -73.0333 56° Northeast 316 364 11,100 -2,000 Descending New York TRACON
Sun 07:24:44 PM 41.0000 -73.0167 North 294 338 9,100 -2,050 Descending New York TRACON
Sun 07:25:44 PM 41.0500 -73.0833 315° West 272 313 7,000 -2,100 Descending New York TRACON
Sun 07:26:44 PM 41.0667 -73.1667 285° West 251 289 4,900 -1,500 Descending New York TRACON
Sun 07:27:44 PM 41.1000 -73.2500 298° West 238 274 4,000 -450 Descending New York TRACON
Sun 07:28:44 PM 41.1333 -73.3333 298° West 236 272 4,000  Level New York TRACON
Sun 07:29:44 PM 41.1500 -73.4167 285° West 233 268 4,000  Level New York TRACON
Sun 07:30:44 PM 41.1833 -73.5000 298° West 236 272 4,000  Level New York TRACON
Sun 07:31:44 PM 41.2000 -73.5667 288° West 237 273 4,000 -550 Level New York TRACON
Sun 07:32:44 PM 41.2167 -73.6500 285° West 231 266 2,900 -1,000 Descending New York TRACON
Sun 07:33:44 PM 41.1833 -73.7333 242° Southwest 202 232 2,000 -450 Descending New York TRACON
Sun 07:34:44 PM 41.1500 -73.7667 217° Southwest 173 199 2,000 -350 Level New York TRACON
Sun 07:35:44 PM 41.1167 -73.7500 159° South 140 161 1,300 -700 Descending New York TRACON

Login

Don't have an account? Register now (free) for customized features, flight alerts, and more!